METAR Formatted Surface Weather Observation
Issued by NWS

Home | Current Version | Previous Version | Text Only | Print | Product List | Glossary On
Versions: 1
000
SPZS31 NSTU 230819
MTRSPP
SPECI NSTU 230810Z 26009KT 8SM TSRA BKN012CB OVC035 26/24 A2981
RMK LTG IC TS SW MOV E CB S-W-N=


USA.gov is the U.S. government's official web portal to all federal, state and local government web resources and services.